WAGO2: Chouteau Lock And Dam (L&D 17)

Data processed at Tue Aug 21 2018 22:35


All information presented herein is the property of the government of the United States of America and may be revised or deleted at any time without prior notice.
Dissemination of this information without the expressed written consent of the Public Affairs Office, Tulsa District U.S. Army Corps of Engineers is strictly prohibited.
These data are gathered electronically and, as presented, have not undergone any form of quality control. These data are not guaranteed to be valid or correct.
Go to home page.
Go to station list.

Upstream stations:

Downstream station:
Previous Day
Next Day
Current Day
    
SHEF ID:       WAGO2     Chouteau LD17
STATION TYPE:  NAVIGATION LOCK
Normal Pool:  Bottom =   511.50, Top =   511.50

               PRECIP ELEVATION   STORAGE   TW-ELEV    INFLOW   RELEASE  AIR-TEMP  WIND-DIRWIND-SPEED REL-HUMID SOLAR-RAD   VOLTAGE  BAT-LOAD
                   in        ft     ac-ft        ft       cfs       cfs         F       deg       mph         %      W/m2      volt      volt
              Ccp-Rev   Ccp-Rev   Ccp-Rev   Ccp-Rev  Regi-Rev  Regi-Rev   Ccp-Rev   Ccp-Rev   Ccp-Rev   Ccp-Rev   Ccp-Rev   Ccp-Rev   Ccp-Rev
(US/Central)
08/21 00:00      0.00    511.26     23160    490.75      2655      2600     70.25    271.70      1.50     83.46      0.00     13.55     13.09
08/21 01:00      0.00    511.36     23387    491.10      3369      2600     69.73    274.80      1.80     84.99      0.00     13.59     13.09
08/21 02:00      0.00    511.30     23251    490.56      3424      2600     69.69    288.20      3.80     84.37      0.00     13.57     13.09
08/21 03:00      0.00    511.42     23523    490.67      4358      2600     68.72    285.60      3.90     86.76      0.00     13.58     13.09
08/21 04:00      0.00    511.47     23637    490.65      3369      2600     68.11    287.30      4.10     86.67      0.00     13.54     13.17
08/21 05:00      0.00    511.58     23887    490.63      3259      2600     67.33    283.70      3.70     87.96      0.00     13.59     13.09
08/21 06:00      0.00    511.55     23818    490.75      2748      2600     66.97    293.60      3.90     88.76      0.00     13.57     13.11
08/21 07:00      0.00    511.50     23705    490.55      2621      4100     66.74    296.00      3.90     88.42      0.00     13.58     13.09
08/21 08:00      0.00    510.91     22366    490.73      2125      4100     67.87    308.40      6.10     86.42     57.10     13.59     13.09
08/21 09:00      0.00    511.31     23274    491.15      2672      4100     70.54    323.70      8.50     81.39    217.00     13.57     13.14
08/21 10:00      0.00    512.05     24969    490.37      3301      4100     73.04    326.70      9.30     76.85    414.30     13.57     13.09
08/21 11:00      0.00    511.24     23115    490.60      3618      4100     75.07    331.60     10.10     72.07    542.90     13.54     13.10
08/21 12:00      0.00    511.22     23069    490.76      3661      4100     76.73    330.80     10.40     68.26    726.70     13.57     13.10
08/21 13:00      0.00    511.25     23137    490.73      4677      4100     78.33    331.80      9.30     65.14    816.60     13.57     12.90
08/21 14:00      0.00    511.23     23092    490.77      4320      4100     79.48    334.60      9.30     63.86    751.10     13.56     13.11
08/21 15:00      0.00    511.38     23433    490.42      4704      4100     80.40    336.70      6.50     61.97    546.70     13.57     13.09
08/21 16:00      0.00    511.28     23206    490.70      4375      4100     81.75    333.30      7.40     59.30    656.50     13.57     13.09
08/21 17:00      0.00    511.33     23319    490.61      4649      4100     83.62    325.30      7.30     55.70    662.60     13.55     13.09
08/21 18:00      0.00    511.30     23251    490.69      3825      4100     83.68    341.60      6.30     55.37    447.30     13.55     13.07
08/21 19:00      0.00    511.33     23319    490.71      4485      4100     83.17     29.70      2.70     56.53    213.50     13.56     13.08
08/21 20:00      0.00    511.33     23319    490.71      4210      4100     80.49    349.80      0.70     67.48     39.40     13.55     13.07
08/21 21:00      0.00    511.37     23410    490.69      4594      4100     75.45    323.90      0.00     84.71      0.00     13.57     13.07
08/21 22:00      0.00    511.35     23364    490.61      -901      -901     73.11    252.80      0.20     91.15      0.00     13.55     13.07
08/21 23:00      ----      ----      ----      ----      ----      ----      ----      ----      ----      ----      ----      ----      ----